createdAt,value
2023-03-10T00:01:24.086Z,13.65
2023-03-10T00:03:53.674Z,13.57
2023-03-10T00:06:26.163Z,13.47
2023-03-10T00:08:55.200Z,13.43
2023-03-10T00:11:24.207Z,13.38
2023-03-10T00:13:53.035Z,13.34
2023-03-10T00:16:24.736Z,13.29
2023-03-10T00:18:54.087Z,13.27
2023-03-10T00:21:26.971Z,13.24
2023-03-10T00:23:55.709Z,13.21
2023-03-10T00:26:26.181Z,13.19
2023-03-10T00:28:55.224Z,13.16
2023-03-10T00:31:25.818Z,13.15
2023-03-10T00:33:54.325Z,13.13
2023-03-10T00:36:27.786Z,13.10
2023-03-10T00:38:57.715Z,13.11
2023-03-10T00:41:30.801Z,13.09
2023-03-10T00:43:59.806Z,13.10
2023-03-10T00:46:29.983Z,13.09
2023-03-10T00:48:58.461Z,13.07
2023-03-10T00:51:28.615Z,13.03
2023-03-10T00:53:57.076Z,13.03
2023-03-10T00:56:27.517Z,13.02
2023-03-10T00:58:58.630Z,13.01
2023-03-10T01:01:29.944Z,12.99
2023-03-10T01:04:01.564Z,12.97
2023-03-10T01:06:31.439Z,12.95
2023-03-10T01:08:59.853Z,12.95
2023-03-10T01:11:30.488Z,12.94
2023-03-10T01:14:01.970Z,12.94
2023-03-10T01:16:31.485Z,12.93
2023-03-10T01:19:02.045Z,12.92
2023-03-10T01:21:35.662Z,12.92
2023-03-10T01:24:05.859Z,12.92
2023-03-10T01:26:34.302Z,12.89
2023-03-10T01:29:02.803Z,12.87
2023-03-10T01:31:31.401Z,12.88
2023-03-10T01:33:59.882Z,12.86
2023-03-10T01:36:29.559Z,12.84
2023-03-10T01:39:00.391Z,12.82
2023-03-10T01:41:28.957Z,12.81
2023-03-10T01:43:58.322Z,12.79
2023-03-10T01:47:00.278Z,12.74
2023-03-10T01:49:36.779Z,12.73
2023-03-10T01:52:11.681Z,12.72
2023-03-10T01:54:55.557Z,12.69
2023-03-10T01:57:30.977Z,12.68
2023-03-10T02:00:00.976Z,12.66
2023-03-10T02:02:31.867Z,12.65
2023-03-10T02:05:00.514Z,12.63
2023-03-10T02:07:31.222Z,12.62
2023-03-10T02:10:01.072Z,12.58
2023-03-10T02:12:29.816Z,12.56
2023-03-10T02:14:58.857Z,12.53
2023-03-10T02:17:28.859Z,12.53
2023-03-10T02:20:16.253Z,12.50
2023-03-10T02:22:44.939Z,12.50
2023-03-10T02:25:30.470Z,12.45
2023-03-10T02:28:00.710Z,12.47
2023-03-10T02:30:33.788Z,12.46
2023-03-10T02:33:07.616Z,12.46
2023-03-10T02:35:36.029Z,12.46
2023-03-10T02:38:04.891Z,12.45
2023-03-10T02:40:38.126Z,12.43
2023-03-10T02:43:17.610Z,12.39
2023-03-10T02:45:48.474Z,12.38
2023-03-10T02:48:28.230Z,12.35
2023-03-10T02:50:58.574Z,12.33
2023-03-10T02:53:29.450Z,12.29
2023-03-10T02:55:59.838Z,12.26
2023-03-10T02:58:32.130Z,12.21
2023-03-10T03:01:01.535Z,12.18
2023-03-10T03:03:30.155Z,12.14
2023-03-10T03:05:58.821Z,12.12
2023-03-10T03:08:28.268Z,12.08
2023-03-10T03:10:56.910Z,12.06
2023-03-10T03:13:25.317Z,12.04
2023-03-10T03:15:55.299Z,12.01
2023-03-10T03:18:24.070Z,12.01
2023-03-10T03:20:52.561Z,11.97
2023-03-10T03:23:22.186Z,11.94
2023-03-10T03:25:50.593Z,11.90
2023-03-10T03:28:18.979Z,11.87
2023-03-10T03:30:47.973Z,11.85
2023-03-10T03:33:17.852Z,11.80
2023-03-10T03:35:46.382Z,11.77
2023-03-10T03:38:14.844Z,11.76
2023-03-10T03:40:45.174Z,11.74
2023-03-10T03:43:15.245Z,11.72
2023-03-10T03:45:43.837Z,11.71
2023-03-10T03:48:14.833Z,11.68
2023-03-10T03:50:44.670Z,11.67
2023-03-10T03:53:13.840Z,11.65
2023-03-10T03:55:42.311Z,11.62
2023-03-10T03:58:10.746Z,11.60
2023-03-10T04:00:40.198Z,11.55
2023-03-10T04:03:09.499Z,11.52
2023-03-10T04:05:38.036Z,11.49
2023-03-10T04:08:08.501Z,11.45
2023-03-10T04:10:36.905Z,11.42
2023-03-10T04:13:05.380Z,11.38
2023-03-10T04:15:33.924Z,11.35
2023-03-10T04:18:02.387Z,11.32
2023-03-10T04:20:31.022Z,11.26
2023-03-10T04:22:59.684Z,11.25
2023-03-10T04:25:29.557Z,11.22
2023-03-10T04:27:59.303Z,11.22
2023-03-10T04:30:29.938Z,11.19
2023-03-10T04:33:00.419Z,11.19
2023-03-10T04:35:29.405Z,11.18
2023-03-10T04:37:57.858Z,11.18
2023-03-10T04:40:26.364Z,11.18
2023-03-10T04:42:56.213Z,11.19
2023-03-10T04:45:25.834Z,11.20
2023-03-10T04:47:54.292Z,11.19
2023-03-10T04:50:22.768Z,11.20
2023-03-10T04:52:51.283Z,11.19
2023-03-10T04:55:19.930Z,11.18
2023-03-10T04:57:48.370Z,11.18
2023-03-10T05:00:21.075Z,11.16
2023-03-10T05:02:49.554Z,11.17
2023-03-10T05:05:18.200Z,11.17
2023-03-10T05:07:46.632Z,11.17
2023-03-10T05:10:15.125Z,11.18
2023-03-10T05:12:43.538Z,11.18
2023-03-10T05:15:13.245Z,11.18
2023-03-10T05:17:43.050Z,11.20
2023-03-10T05:20:14.565Z,11.20
2023-03-10T05:22:43.712Z,11.23
2023-03-10T05:25:13.592Z,11.24
2023-03-10T05:27:42.057Z,11.25
2023-03-10T05:30:16.023Z,11.27
2023-03-10T05:32:46.804Z,11.29
2023-03-10T05:35:15.815Z,11.32
2023-03-10T05:37:45.672Z,11.33
2023-03-10T05:40:19.782Z,11.35
2023-03-10T05:42:48.536Z,11.39
2023-03-10T05:45:17.426Z,11.42
2023-03-10T05:47:47.636Z,11.46
2023-03-10T05:50:16.775Z,11.49
2023-03-10T05:52:46.149Z,11.53
2023-03-10T05:55:19.647Z,11.57
2023-03-10T05:57:49.044Z,11.63
2023-03-10T06:00:18.806Z,11.67
2023-03-10T06:02:48.634Z,11.71
2023-03-10T06:05:17.191Z,11.76
2023-03-10T06:07:45.648Z,11.82
2023-03-10T06:10:14.139Z,11.87
2023-03-10T06:12:42.554Z,11.94
2023-03-10T06:15:11.976Z,12.00
2023-03-10T06:17:40.361Z,12.07
2023-03-10T06:20:11.661Z,12.15
2023-03-10T06:22:40.048Z,12.22
2023-03-10T06:25:10.279Z,12.28
2023-03-10T06:27:38.947Z,12.36
2023-03-10T06:30:09.200Z,12.43
2023-03-10T06:32:37.750Z,12.51
2023-03-10T06:35:07.250Z,12.60
2023-03-10T06:37:37.090Z,12.69
2023-03-10T06:40:08.242Z,12.76
2023-03-10T06:42:36.711Z,12.86
2023-03-10T06:45:06.169Z,12.93
2023-03-10T06:47:34.706Z,13.02
2023-03-10T06:50:03.662Z,13.07
2023-03-10T06:52:35.211Z,13.14
2023-03-10T06:55:05.766Z,13.20
2023-03-10T06:57:34.766Z,13.30
2023-03-10T07:00:04.406Z,13.38
2023-03-10T07:02:32.899Z,13.48
2023-03-10T07:05:01.418Z,13.56
2023-03-10T07:07:29.961Z,13.67
2023-03-10T07:09:58.568Z,13.75
2023-03-10T07:12:28.457Z,13.81
2023-03-10T07:14:57.140Z,13.87
2023-03-10T07:17:25.690Z,13.94
2023-03-10T07:19:54.122Z,14.02
2023-03-10T07:22:23.652Z,14.11
2023-03-10T07:24:56.224Z,14.19
2023-03-10T07:27:25.066Z,14.29
2023-03-10T07:29:54.853Z,14.42
2023-03-10T07:32:23.335Z,14.57
2023-03-10T07:34:52.592Z,14.71
2023-03-10T07:37:21.078Z,14.86
2023-03-10T07:39:49.977Z,14.99
2023-03-10T07:42:18.479Z,15.14
2023-03-10T07:44:46.913Z,15.27
2023-03-10T07:47:16.915Z,15.36
2023-03-10T07:49:47.006Z,15.45
2023-03-10T07:52:16.372Z,15.51
2023-03-10T07:54:45.366Z,15.58
2023-03-10T07:57:14.464Z,15.66
2023-03-10T07:59:43.651Z,15.74
2023-03-10T08:02:14.484Z,15.88
2023-03-10T08:04:45.042Z,15.99
2023-03-10T08:07:13.585Z,16.14
2023-03-10T08:09:42.087Z,16.27
2023-03-10T08:12:11.310Z,16.35
2023-03-10T08:14:40.181Z,16.46
2023-03-10T08:17:08.700Z,16.56
2023-03-10T08:19:40.303Z,16.67
2023-03-10T08:22:10.715Z,16.76
2023-03-10T08:24:39.430Z,16.89
2023-03-10T08:27:07.902Z,17.04
2023-03-10T08:29:36.543Z,17.16
2023-03-10T08:32:05.267Z,17.29
2023-03-10T08:34:37.472Z,17.37
2023-03-10T08:37:06.413Z,17.49
2023-03-10T08:39:36.516Z,17.61
2023-03-10T08:42:05.236Z,17.72
2023-03-10T08:44:33.734Z,17.81
2023-03-10T08:47:02.375Z,17.90
2023-03-10T08:49:30.854Z,18.00
2023-03-10T08:52:00.137Z,18.09
2023-03-10T08:54:31.301Z,18.18
2023-03-10T08:57:02.394Z,18.31
2023-03-10T08:59:30.895Z,18.42
2023-03-10T09:01:59.569Z,18.48
2023-03-10T09:04:28.168Z,18.53
2023-03-10T09:06:56.673Z,18.56
2023-03-10T09:09:25.167Z,18.61
2023-03-10T09:11:53.706Z,18.66
2023-03-10T09:14:23.733Z,18.78
2023-03-10T09:16:52.265Z,18.90
2023-03-10T09:19:20.921Z,18.99
2023-03-10T09:21:49.421Z,19.12
2023-03-10T09:24:18.177Z,19.21
2023-03-10T09:26:46.951Z,19.31
2023-03-10T09:29:15.576Z,19.42
2023-03-10T09:31:47.763Z,19.51
2023-03-10T09:34:16.524Z,19.60
2023-03-10T09:36:45.068Z,19.70
2023-03-10T09:39:13.682Z,19.79
2023-03-10T09:42:18.909Z,19.86
2023-03-10T09:45:02.635Z,19.94
2023-03-10T09:47:46.725Z,20.01
2023-03-10T09:50:33.316Z,20.08
2023-03-10T09:53:09.227Z,20.15
2023-03-10T09:55:47.456Z,20.25
2023-03-10T09:58:31.569Z,20.32
2023-03-10T10:01:01.137Z,20.38
2023-03-10T10:03:51.537Z,20.41
2023-03-10T10:06:28.010Z,20.45
2023-03-10T10:09:05.080Z,20.48
2023-03-10T10:11:36.688Z,20.52
2023-03-10T10:14:28.515Z,20.54
2023-03-10T10:17:09.949Z,20.63
2023-03-10T10:19:41.180Z,20.71
2023-03-10T10:22:18.722Z,20.73
2023-03-10T10:25:05.411Z,20.74
2023-03-10T10:27:35.579Z,20.77
2023-03-10T10:30:36.067Z,20.69
2023-03-10T10:33:06.202Z,20.74
2023-03-10T10:35:39.344Z,20.66
2023-03-10T10:38:21.546Z,20.76
2023-03-10T10:40:52.770Z,20.66
2023-03-10T10:43:23.227Z,20.64
2023-03-10T10:45:56.161Z,20.65
2023-03-10T10:48:39.018Z,20.83
2023-03-10T10:51:24.589Z,21.15
2023-03-10T10:53:53.237Z,21.54
2023-03-10T10:56:24.147Z,21.98
2023-03-10T10:59:08.606Z,22.43
2023-03-10T11:01:55.430Z,22.94
2023-03-10T11:04:26.321Z,23.48
2023-03-10T11:07:12.321Z,24.12
2023-03-10T11:09:40.843Z,24.76
2023-03-10T11:12:20.294Z,25.35
2023-03-10T11:15:11.305Z,26.05
2023-03-10T11:17:45.278Z,26.85
2023-03-10T11:20:26.320Z,27.50
2023-03-10T11:23:10.229Z,28.08
2023-03-10T11:25:43.792Z,28.55
2023-03-10T11:28:32.560Z,28.90
2023-03-10T11:31:16.876Z,29.01
2023-03-10T11:33:55.406Z,28.92
2023-03-10T11:36:49.613Z,28.74
2023-03-10T11:39:43.312Z,28.58
2023-03-10T11:42:26.062Z,28.44
2023-03-10T11:45:07.096Z,28.26
2023-03-10T11:47:50.283Z,28.16
2023-03-10T11:50:32.350Z,27.95
2023-03-10T11:53:06.747Z,27.66
2023-03-10T11:55:38.545Z,27.35
2023-03-10T11:58:11.101Z,26.99
2023-03-10T12:00:44.117Z,26.53
2023-03-10T12:03:21.050Z,26.08
2023-03-10T12:05:56.526Z,25.86
2023-03-10T12:08:30.720Z,25.76
2023-03-10T12:11:04.117Z,25.75
2023-03-10T12:13:47.443Z,25.71
2023-03-10T12:16:22.074Z,25.67
2023-03-10T12:18:50.874Z,25.78
2023-03-10T12:21:25.116Z,25.96
2023-03-10T12:23:55.443Z,26.31
2023-03-10T12:27:04.661Z,26.72
2023-03-10T12:29:39.748Z,27.10
2023-03-10T12:32:44.379Z,27.43
2023-03-10T12:35:44.465Z,27.68
2023-03-10T12:38:36.369Z,28.16
2023-03-10T12:41:05.499Z,28.73
2023-03-10T12:43:58.008Z,29.35
2023-03-10T12:46:44.853Z,30.19
2023-03-10T12:49:28.171Z,30.89
2023-03-10T12:52:11.199Z,31.23
2023-03-10T12:55:05.105Z,31.21
2023-03-10T12:57:42.496Z,30.91
2023-03-10T13:00:26.043Z,30.59
2023-03-10T13:03:00.496Z,30.42
2023-03-10T13:05:35.312Z,30.48
2023-03-10T13:08:17.584Z,30.80
2023-03-10T13:10:47.290Z,31.37
2023-03-10T13:13:18.987Z,31.93
2023-03-10T13:15:59.703Z,32.23
2023-03-10T13:18:29.051Z,32.29
2023-03-10T13:21:01.698Z,32.24
2023-03-10T13:23:34.407Z,32.41
2023-03-10T13:26:06.966Z,32.61
2023-03-10T13:28:37.446Z,32.58
2023-03-10T13:31:20.780Z,32.44
2023-03-10T13:33:53.934Z,32.36
2023-03-10T13:36:35.205Z,32.46
2023-03-10T13:39:06.001Z,32.47
2023-03-10T13:41:37.553Z,32.15
2023-03-10T13:44:06.231Z,31.72
2023-03-10T13:46:35.707Z,31.34
2023-03-10T13:49:08.719Z,30.99
2023-03-10T13:51:39.349Z,30.70
2023-03-10T13:54:21.988Z,30.19
2023-03-10T13:56:53.761Z,29.60
2023-03-10T13:59:25.526Z,29.05
2023-03-10T14:01:57.404Z,28.47
2023-03-10T14:04:45.817Z,27.83
2023-03-10T14:07:19.496Z,27.39
2023-03-10T14:09:50.732Z,27.01
2023-03-10T14:12:37.891Z,26.64
2023-03-10T14:15:23.293Z,26.37
2023-03-10T14:17:54.611Z,26.14
2023-03-10T14:20:31.956Z,25.84
2023-03-10T14:23:23.687Z,25.58
2023-03-10T14:25:55.118Z,25.34
2023-03-10T14:28:27.442Z,25.16
2023-03-10T14:30:56.459Z,25.03
2023-03-10T14:33:25.024Z,24.93
2023-03-10T14:35:53.572Z,24.81
2023-03-10T14:38:23.454Z,24.70
2023-03-10T14:40:55.053Z,24.49
2023-03-10T14:43:26.934Z,24.26
2023-03-10T14:45:58.657Z,24.06
2023-03-10T14:48:29.720Z,23.90
2023-03-10T14:50:58.405Z,23.76
2023-03-10T14:53:31.020Z,23.62
2023-03-10T14:56:02.937Z,23.51
2023-03-10T14:58:34.841Z,23.44
2023-03-10T15:01:04.068Z,23.39
2023-03-10T15:03:32.599Z,23.36
2023-03-10T15:06:01.136Z,23.30
2023-03-10T15:08:31.034Z,23.26
2023-03-10T15:10:59.892Z,23.19
2023-03-10T15:13:28.417Z,23.14
2023-03-10T15:15:57.207Z,23.08
2023-03-10T15:18:28.199Z,23.00
2023-03-10T15:20:59.113Z,22.93
2023-03-10T15:23:28.170Z,22.91
2023-03-10T15:25:59.375Z,22.86
2023-03-10T15:28:27.972Z,22.83
2023-03-10T15:30:56.823Z,22.80
2023-03-10T15:33:25.399Z,22.81
2023-03-10T15:35:55.160Z,22.82
2023-03-10T15:38:23.819Z,22.84
2023-03-10T15:40:52.513Z,22.85
2023-03-10T15:43:23.132Z,22.91
2023-03-10T15:45:51.671Z,22.94
2023-03-10T15:48:20.518Z,22.97
2023-03-10T15:50:49.596Z,22.97
2023-03-10T15:53:18.212Z,22.97
2023-03-10T15:55:48.414Z,22.91
2023-03-10T15:58:16.927Z,22.84
2023-03-10T16:00:46.988Z,22.73
2023-03-10T16:03:18.244Z,22.63
2023-03-10T16:05:50.484Z,22.50
2023-03-10T16:08:19.391Z,22.38
2023-03-10T16:10:53.910Z,22.22
2023-03-10T16:13:23.853Z,22.10
2023-03-10T16:15:53.862Z,21.94
2023-03-10T16:18:23.293Z,21.80
2023-03-10T16:20:58.626Z,21.60
2023-03-10T16:23:28.879Z,21.46
2023-03-10T16:26:14.603Z,21.22
2023-03-10T16:28:45.904Z,21.07
2023-03-10T16:31:19.799Z,20.90
2023-03-10T16:33:49.753Z,20.78
2023-03-10T16:36:22.518Z,20.65
2023-03-10T16:38:53.665Z,20.53
2023-03-10T16:41:23.188Z,20.40
2023-03-10T16:43:52.566Z,20.26
2023-03-10T16:46:26.117Z,20.14
2023-03-10T16:48:55.786Z,20.04
2023-03-10T16:51:28.740Z,19.92
2023-03-10T16:54:00.341Z,19.83
2023-03-10T16:56:33.531Z,19.71
2023-03-10T16:59:02.052Z,19.61
2023-03-10T17:01:32.257Z,19.50
2023-03-10T17:04:02.362Z,19.41
2023-03-10T17:06:34.075Z,19.32
2023-03-10T17:09:06.019Z,19.24
2023-03-10T17:11:38.120Z,19.16
2023-03-10T17:14:12.423Z,19.08
2023-03-10T17:16:43.602Z,19.00
2023-03-10T17:19:15.440Z,18.94
2023-03-10T17:21:47.282Z,18.85
2023-03-10T17:24:24.736Z,18.79
2023-03-10T17:26:54.079Z,18.72
2023-03-10T17:29:23.644Z,18.66
2023-03-10T17:31:53.892Z,18.59
2023-03-10T17:34:23.758Z,18.54
2023-03-10T17:36:53.165Z,18.48
2023-03-10T17:39:25.155Z,18.42
2023-03-10T17:41:55.634Z,18.36
2023-03-10T17:44:25.508Z,18.32
2023-03-10T17:46:57.253Z,18.26
2023-03-10T17:49:27.406Z,18.19
2023-03-10T17:51:57.886Z,18.15
2023-03-10T17:54:27.349Z,18.10
2023-03-10T17:56:56.411Z,18.07
2023-03-10T17:59:25.109Z,18.04
2023-03-10T18:01:55.608Z,18.02
2023-03-10T18:04:29.834Z,18.00
2023-03-10T18:06:58.980Z,17.99
2023-03-10T18:09:30.808Z,17.96
2023-03-10T18:11:59.799Z,17.95
2023-03-10T18:14:30.180Z,17.91
2023-03-10T18:17:03.977Z,17.88
2023-03-10T18:19:32.594Z,17.85
2023-03-10T18:22:06.237Z,17.82
2023-03-10T18:24:36.161Z,17.77
2023-03-10T18:27:05.340Z,17.73
2023-03-10T18:29:34.608Z,17.70
2023-03-10T18:32:06.968Z,17.64
2023-03-10T18:34:37.287Z,17.61
2023-03-10T18:37:08.603Z,17.59
2023-03-10T18:39:41.098Z,17.53
2023-03-10T18:42:10.806Z,17.49
2023-03-10T18:44:41.845Z,17.45
2023-03-10T18:47:14.375Z,17.40
2023-03-10T18:49:43.837Z,17.37
2023-03-10T18:52:16.525Z,17.36
2023-03-10T18:54:46.369Z,17.32
2023-03-10T18:57:16.233Z,17.31
2023-03-10T18:59:46.932Z,17.30
2023-03-10T19:02:20.032Z,17.28
2023-03-10T19:04:52.289Z,17.29
2023-03-10T19:07:22.967Z,17.29
2023-03-10T19:09:58.386Z,17.27
2023-03-10T19:12:29.917Z,17.29
2023-03-10T19:15:07.427Z,17.26
2023-03-10T19:17:49.492Z,17.25
2023-03-10T19:20:22.196Z,17.23
2023-03-10T19:22:53.066Z,17.22
2023-03-10T19:25:24.553Z,17.19
2023-03-10T19:27:54.982Z,17.18
2023-03-10T19:30:25.255Z,17.14
2023-03-10T19:32:57.088Z,17.12
2023-03-10T19:35:26.996Z,17.10
2023-03-10T19:37:57.428Z,17.06
2023-03-10T19:40:26.697Z,17.03
2023-03-10T19:42:56.303Z,16.99
2023-03-10T19:45:27.272Z,16.95
2023-03-10T19:48:01.231Z,16.93
2023-03-10T19:50:31.305Z,16.88
2023-03-10T19:53:01.668Z,16.85
2023-03-10T19:55:32.566Z,16.80
2023-03-10T19:58:03.451Z,16.76
2023-03-10T20:00:36.745Z,16.72
2023-03-10T20:03:09.398Z,16.70
2023-03-10T20:05:38.975Z,16.68
2023-03-10T20:08:14.253Z,16.66
2023-03-10T20:10:45.046Z,16.64
2023-03-10T20:13:15.397Z,16.61
2023-03-10T20:15:46.162Z,16.60
2023-03-10T20:18:21.609Z,16.58
2023-03-10T20:20:52.395Z,16.56
2023-03-10T20:23:23.196Z,16.54
2023-03-10T20:25:53.354Z,16.52
2023-03-10T20:28:23.533Z,16.50
2023-03-10T20:30:53.940Z,16.46
2023-03-10T20:33:25.425Z,16.40
2023-03-10T20:35:55.019Z,16.38
2023-03-10T20:38:28.273Z,16.35
2023-03-10T20:40:58.700Z,16.31
2023-03-10T20:43:29.385Z,16.28
2023-03-10T20:46:00.060Z,16.24
2023-03-10T20:48:32.373Z,16.23
2023-03-10T20:51:03.953Z,16.21
2023-03-10T20:53:37.619Z,16.20
2023-03-10T20:56:12.368Z,16.15
2023-03-10T20:58:42.562Z,16.15
2023-03-10T21:01:19.274Z,16.14
2023-03-10T21:03:54.834Z,16.16
2023-03-10T21:06:25.192Z,16.16
2023-03-10T21:08:56.221Z,16.16
2023-03-10T21:11:25.886Z,16.16
2023-03-10T21:13:55.022Z,16.16
2023-03-10T21:16:24.601Z,16.15
2023-03-10T21:18:56.085Z,16.14
2023-03-10T21:21:25.402Z,16.12
2023-03-10T21:23:54.902Z,16.10
2023-03-10T21:26:23.533Z,16.05
2023-03-10T21:28:52.315Z,16.02
2023-03-10T21:31:20.849Z,15.99
2023-03-10T21:33:50.210Z,15.94
2023-03-10T21:36:24.731Z,15.90
2023-03-10T21:38:54.141Z,15.86
2023-03-10T21:41:27.628Z,15.84
2023-03-10T21:43:57.712Z,15.80
2023-03-10T21:46:27.431Z,15.75
2023-03-10T21:48:56.063Z,15.72
2023-03-10T21:51:27.521Z,15.66
2023-03-10T21:53:56.641Z,15.60
2023-03-10T21:56:28.272Z,15.57
2023-03-10T21:58:58.298Z,15.52
2023-03-10T22:01:27.622Z,15.48
2023-03-10T22:03:56.143Z,15.45
2023-03-10T22:06:25.954Z,15.42
2023-03-10T22:08:54.446Z,15.42
2023-03-10T22:11:23.001Z,15.42
2023-03-10T22:13:53.956Z,15.43
2023-03-10T22:16:22.500Z,15.45
2023-03-10T22:18:50.937Z,15.47
2023-03-10T22:21:19.900Z,15.47
2023-03-10T22:23:49.680Z,15.43
2023-03-10T22:26:18.118Z,15.42
2023-03-10T22:28:46.606Z,15.40
2023-03-10T22:31:15.849Z,15.39
2023-03-10T22:33:44.364Z,15.38
2023-03-10T22:36:14.670Z,15.38
2023-03-10T22:38:43.155Z,15.36
2023-03-10T22:41:14.159Z,15.35
2023-03-10T22:43:43.320Z,15.35
2023-03-10T22:46:13.818Z,15.35
2023-03-10T22:48:42.994Z,15.35
2023-03-10T22:51:15.515Z,15.35
2023-03-10T22:53:46.397Z,15.35
2023-03-10T22:56:16.479Z,15.33
2023-03-10T22:58:44.897Z,15.34
2023-03-10T23:01:13.323Z,15.34
2023-03-10T23:03:42.601Z,15.34
2023-03-10T23:06:13.552Z,15.34
2023-03-10T23:08:43.753Z,15.34
2023-03-10T23:11:13.667Z,15.34
2023-03-10T23:13:43.980Z,15.32
2023-03-10T23:16:12.543Z,15.33
2023-03-10T23:18:41.043Z,15.33
2023-03-10T23:21:09.504Z,15.33
2023-03-10T23:23:39.290Z,15.30
2023-03-10T23:26:07.876Z,15.30
2023-03-10T23:28:36.428Z,15.27
2023-03-10T23:31:06.769Z,15.25
2023-03-10T23:33:35.952Z,15.24
2023-03-10T23:36:04.918Z,15.23
2023-03-10T23:38:35.939Z,15.23
2023-03-10T23:41:04.537Z,15.21
2023-03-10T23:43:34.040Z,15.16
2023-03-10T23:46:07.692Z,15.13
2023-03-10T23:48:36.933Z,15.18
2023-03-10T23:51:05.947Z,15.18
2023-03-10T23:53:34.357Z,15.17
2023-03-10T23:56:02.944Z,15.15
2023-03-10T23:58:31.522Z,15.15
